Iacsonvilla, FL (32257)

04:48 PM EST die 03o December, anno 2016 (GMT -0500)
Spanish Wells | | Change Station

Elev 26 ft 30.21 °N, 81.61 °W | Updated 33 seconds ago

Scattered Clouds
Nubes Dispersae
64.9 °F
Feels Like 64.9 °F
N
0.0
Ventus Variabilis Ventus from Magis Zephyrus quam Aquilo

Hodie
High -- | Low -- °F
--% Chance of Precip.
Yesterday
High -- | Low -- °F
Precip. -- in
Pressio 30.14 in
Visibilitas 10.0 milia passuum
Clouds Nubes Dispersae 16000 ft
Nubes Dispersae 25000 ft
Frigus in quo Ros apparet 48 °F
Umor 55%
Rainfall 0.00 in
Snow Depth Not available.
7:07 AM 5:25 PM
Waxing Crescent, 17% visible
METAR KNIP 032053Z 05010KT 10SM SCT160 SCT250 19/09 A3015 RMK AO2 SLP205 T01940089 56009 $
Pressio 30.14 in
Visibilitas 10.0 milia passuum
Clouds Nubes Dispersae 16000 ft
Nubes Dispersae 25000 ft
Frigus in quo Ros apparet 48 °F
Umor 55%
Rainfall 0.00 in
Snow Depth Not available.
7:07 AM 5:25 PM
Waxing Crescent, 17% visible
METAR KNIP 032053Z 05010KT 10SM SCT160 SCT250 19/09 A3015 RMK AO2 SLP205 T01940089 56009 $

10-Day Weather Forecast

Almanac

Astronomy

Dec. 03, 2016 Rise Set
Actual Time
Civil Twilight
Nautical Twilight
Astronomical Twilight
Moon
Length Of Visible Light
Length of Day
Tomorrow will be .
, % of the Moon is Illuminated

Today's Extremes

State Highs State Lows

Community

WunderPhotos

Upload Photos

1,955,506 photos uploaded!

WunderBlog® & News

Nearby

Air Quality

  Air Quality AQ Index Pollutant
Not available.

Snow Depth

Station Depth Elevation

Earthquake Activity

City Distance Mag. Time & Date
Minimum magnitude displayed is 2.5.

Coastal Water Temperatures

Locus Calor

Stations

Nearby Weather Stations

Station Location Temp Frigus Venti Frigus in quo Ros apparet Umor Ventus Precip. Elev Renovata Type
                   

Watches & Warnings

There are currently no watches in effect.